Polfoss — V2PN7 — position and weather

sailwx.info

Track history (hours):
 
Tides and Currents Weather Stations Pressure Air Temp Water Temp Dewpoint Dewpoint Depression Visibility Wind Speed Wind Dir Waves Ship Positions

Polfoss

Last reported at 2014-Nov-27 02:32 UTC. Time now 2014-Nov-28 15:48 UTC.
Position N 63°42' E 009°31'.

Length 82 m; draft 6.3 m.

Type: Cargo ship. MMSI: 305081000.

Date/timePositionNaut miles runAvg speedWind from/ knotsBaromVisibWave heightAir tempDewpointWater temp
2014-Nov-27 02:32N 63°42' E 009°31'7912.9
2014-Nov-26 20:23N 64°49' E 011°08'1113.7
2014-Nov-26 19:33N 64°56' E 011°28'9113.0
2014-Nov-26 12:33N 66°20' E 012°57'3912.9
2014-Nov-26 09:31N 66°57' E 013°29'1313.2
2014-Nov-26 08:31N 67°05' E 013°56'1313.6
2014-Nov-26 07:33N 67°16' E 014°13'1312.7
2014-Nov-26 06:34N 67°28' E 014°23'163 5.8
2014-Nov-25 02:33N 69°37' E 018°55'2 2.4
2014-Nov-25 01:33N 69°39' E 018°58'0 0.0
2014-Nov-25 00:33N 69°39' E 018°58'0 0.0
2014-Nov-24 23:33N 69°39' E 018°58'0 0.0
2014-Nov-24 22:33N 69°39' E 018°58'0 0.0
2014-Nov-24 21:33N 69°39' E 018°58'0 0.0
2014-Nov-24 20:34N 69°39' E 018°58'0 0.0
2014-Nov-24 19:33N 69°39' E 018°58'0 0.0
2014-Nov-24 18:33N 69°39' E 018°58'0 0.0
2014-Nov-24 17:33N 69°39' E 018°58'0 0.0
2014-Nov-24 16:33N 69°39' E 018°58'0 0.0
2014-Nov-24 15:34N 69°39' E 018°58'0 0.0
2014-Nov-24 14:33N 69°39' E 018°58'0 0.0
2014-Nov-24 13:33N 69°39' E 018°58'0 0.0
2014-Nov-24 12:33N 69°39' E 018°58'2 1.9
2014-Nov-24 11:33N 69°38' E 018°57'0 0.0
2014-Nov-24 10:33N 69°38' E 018°57'0 0.0
2014-Nov-24 09:33N 69°38' E 018°57'0 0.0
2014-Nov-24 08:33N 69°38' E 018°57'0 0.0
2014-Nov-24 07:33N 69°38' E 018°57'7 6.9
2014-Nov-24 06:33N 69°44' E 019°03'8213.7
2014-Nov-24 00:34N 70°28' E 022°28'1413.9
2014-Nov-23 23:34N 70°34' E 023°06'1212.1
2014-Nov-23 22:33N 70°38' E 023°40'2 2.1
2014-Nov-23 21:33N 70°39' E 023°34'  
2014-Nov-21 13:33N 70°40' E 023°32'2 1.7
2014-Nov-21 12:34N 70°38' E 023°30'1615.6
2014-Nov-21 11:33N 70°30' E 022°49'8914.7
2014-Nov-21 05:31N 69°45' E 019°04'6 6.1
2014-Nov-21 04:34N 69°39' E 018°58'0 0.0
2014-Nov-21 03:33N 69°39' E 018°58'0 0.4
2014-Nov-21 02:33N 69°39' E 018°59'6 1.2
2014-Nov-20 21:17N 69°34' E 018°49'140 8.8
2014-Nov-20 05:19N 67°51' E 014°26'1114.8
2014-Nov-20 04:33N 67°41' E 014°14'1515.0
2014-Nov-20 03:33N 67°27' E 014°25'1414.2
2014-Nov-20 02:33N 67°14' E 014°09'1514.9
2014-Nov-20 01:33N 67°02' E 013°46'4113.7
2014-Nov-19 22:32N 66°25' E 012°59'2014.7
2014-Nov-19 21:09N 66°06' E 012°42'7114.1
2014-Nov-19 16:07N 65°00' E 011°37'814.7
2014-Nov-19 15:33N 64°55' E 011°22'  
Track history (hours):
 
Tides and Currents Weather Stations Pressure Air Temp Water Temp Dewpoint Dewpoint Depression Visibility Wind Speed Wind Dir Waves Ship Positions

Polfoss

Last reported at 2014-Nov-27 02:32 UTC. Time now 2014-Nov-28 15:48 UTC.
Position N 63°42' E 009°31'.

Length 82 m; draft 6.3 m.

Type: Cargo ship. MMSI: 305081000.

Date/timePositionNaut miles runAvg speedWind from/ knotsBaromVisibWave heightAir tempDewpointWater temp
2014-Nov-27 02:32N 63°42' E 009°31'7912.9
2014-Nov-26 20:23N 64°49' E 011°08'1113.7
2014-Nov-26 19:33N 64°56' E 011°28'9113.0
2014-Nov-26 12:33N 66°20' E 012°57'3912.9
2014-Nov-26 09:31N 66°57' E 013°29'1313.2
2014-Nov-26 08:31N 67°05' E 013°56'1313.6
2014-Nov-26 07:33N 67°16' E 014°13'1312.7
2014-Nov-26 06:34N 67°28' E 014°23'163 5.8
2014-Nov-25 02:33N 69°37' E 018°55'2 2.4
2014-Nov-25 01:33N 69°39' E 018°58'0 0.0
2014-Nov-25 00:33N 69°39' E 018°58'0 0.0
2014-Nov-24 23:33N 69°39' E 018°58'0 0.0
2014-Nov-24 22:33N 69°39' E 018°58'0 0.0
2014-Nov-24 21:33N 69°39' E 018°58'0 0.0
2014-Nov-24 20:34N 69°39' E 018°58'0 0.0
2014-Nov-24 19:33N 69°39' E 018°58'0 0.0
2014-Nov-24 18:33N 69°39' E 018°58'0 0.0
2014-Nov-24 17:33N 69°39' E 018°58'0 0.0
2014-Nov-24 16:33N 69°39' E 018°58'0 0.0
2014-Nov-24 15:34N 69°39' E 018°58'0 0.0
2014-Nov-24 14:33N 69°39' E 018°58'0 0.0
2014-Nov-24 13:33N 69°39' E 018°58'0 0.0
2014-Nov-24 12:33N 69°39' E 018°58'2 1.9
2014-Nov-24 11:33N 69°38' E 018°57'0 0.0
2014-Nov-24 10:33N 69°38' E 018°57'0 0.0
2014-Nov-24 09:33N 69°38' E 018°57'0 0.0
2014-Nov-24 08:33N 69°38' E 018°57'0 0.0
2014-Nov-24 07:33N 69°38' E 018°57'7 6.9
2014-Nov-24 06:33N 69°44' E 019°03'8213.7
2014-Nov-24 00:34N 70°28' E 022°28'1413.9
2014-Nov-23 23:34N 70°34' E 023°06'1212.1
2014-Nov-23 22:33N 70°38' E 023°40'2 2.1
2014-Nov-23 21:33N 70°39' E 023°34'  
2014-Nov-21 13:33N 70°40' E 023°32'2 1.7
2014-Nov-21 12:34N 70°38' E 023°30'1615.6
2014-Nov-21 11:33N 70°30' E 022°49'8914.7
2014-Nov-21 05:31N 69°45' E 019°04'6 6.1
2014-Nov-21 04:34N 69°39' E 018°58'0 0.0
2014-Nov-21 03:33N 69°39' E 018°58'0 0.4
2014-Nov-21 02:33N 69°39' E 018°59'6 1.2
2014-Nov-20 21:17N 69°34' E 018°49'140 8.8
2014-Nov-20 05:19N 67°51' E 014°26'1114.8
2014-Nov-20 04:33N 67°41' E 014°14'1515.0
2014-Nov-20 03:33N 67°27' E 014°25'1414.2
2014-Nov-20 02:33N 67°14' E 014°09'1514.9
2014-Nov-20 01:33N 67°02' E 013°46'4113.7
2014-Nov-19 22:32N 66°25' E 012°59'2014.7
2014-Nov-19 21:09N 66°06' E 012°42'7114.1
2014-Nov-19 16:07N 65°00' E 011°37'814.7
2014-Nov-19 15:33N 64°55' E 011°22'  

Dump ship's entire track history